Wetterdaten: Donnerstag, 30.10.2014
Datum Zeit Temperatur Luftfeuchte Luftdruck Regen Wind Richtung Richtung Taupunkt Windchill Windben
30.10.2014 00:00 1,2 C 94 % 1023,1 hPa 0,0 l/m 0,2 km/h (0 Bft) S-SO 157 0,3 C 0,2 C 0,0 km/h (0 Bft)
30.10.2014 00:05 0,9 C 94 % 1023,1 hPa 0,0 l/m 0,0 km/h (0 Bft) S-SO 157 0,0 C 0,0 C 0,0 km/h (0 Bft)
30.10.2014 00:10 1,1 C 94 % 1023,1 hPa 0,0 l/m 0,0 km/h (0 Bft) S-SO 157 0,2 C -0,1 C 0,0 km/h (0 Bft)
30.10.2014 00:15 0,9 C 94 % 1023,1 hPa 0,0 l/m 0,0 km/h (0 Bft) S-SO 157 0,0 C -0,1 C 0,0 km/h (0 Bft)
30.10.2014 00:20 1,0 C 94 % 1023,2 hPa 0,0 l/m 0,0 km/h (0 Bft) S-SO 157 0,1 C -0,1 C 0,0 km/h (0 Bft)
30.10.2014 00:25 1,1 C 94 % 1023,2 hPa 0,0 l/m 0,2 km/h (0 Bft) W-SW 247 0,2 C -0,1 C 2,7 km/h (1 Bft)
30.10.2014 00:30 1,3 C 94 % 1023,2 hPa 0,0 l/m 1,3 km/h (1 Bft) S 180 0,4 C 0,1 C 5,1 km/h (1 Bft)
30.10.2014 00:35 1,0 C 94 % 1023,2 hPa 0,0 l/m 1,4 km/h (1 Bft) O-SO 112 0,1 C 0,4 C 6,1 km/h (2 Bft)
30.10.2014 00:40 1,2 C 94 % 1023,3 hPa 0,0 l/m 0,8 km/h (0 Bft) O 90 0,3 C 0,4 C 0,0 km/h (0 Bft)
30.10.2014 00:45 0,9 C 94 % 1023,3 hPa 0,0 l/m 0,2 km/h (0 Bft) O-NO 67 0,0 C 0,3 C 0,0 km/h (0 Bft)
30.10.2014 00:50 0,7 C 94 % 1023,3 hPa 0,0 l/m 0,0 km/h (0 Bft) O-SO 112 -0,2 C 0,1 C 1,6 km/h (1 Bft)
30.10.2014 00:55 0,8 C 94 % 1023,3 hPa 0,0 l/m 0,3 km/h (0 Bft) O 90 -0,1 C 0,2 C 0,0 km/h (0 Bft)
30.10.2014 01:00 0,9 C 94 % 1023,6 hPa 0,0 l/m 0,5 km/h (0 Bft) S-SO 157 0,0 C 0,1 C 0,0 km/h (0 Bft)
30.10.2014 01:05 0,7 C 94 % 1023,6 hPa 0,0 l/m 0,2 km/h (0 Bft) N-NO 22 -0,2 C 0,1 C 3,1 km/h (1 Bft)
30.10.2014 01:10 0,6 C 94 % 1023,6 hPa 0,0 l/m 0,2 km/h (0 Bft) O-SO 112 -0,3 C 0,1 C 0,0 km/h (0 Bft)
30.10.2014 01:15 0,8 C 94 % 1023,6 hPa 0,0 l/m 0,3 km/h (0 Bft) N-NO 22 -0,1 C 0,0 C 0,0 km/h (0 Bft)
30.10.2014 01:20 0,6 C 94 % 1023,6 hPa 0,0 l/m 0,3 km/h (0 Bft) O-SO 112 -0,3 C 0,0 C 0,0 km/h (0 Bft)
30.10.2014 01:23 0,6 C 94 % 1023,6 hPa 0,0 l/m 0,5 km/h (0 Bft) SO 135 -0,3 C -0,1 C 0,0 km/h (0 Bft)
30.10.2014 01:25 0,6 C 94 % 1023,6 hPa 0,0 l/m 0,5 km/h (0 Bft) SO 135 -0,3 C -0,1 C 0,0 km/h (0 Bft)
30.10.2014 01:30 0,4 C 94 % 1023,6 hPa 0,0 l/m 0,2 km/h (0 Bft) O-SO 112 -0,5 C -0,2 C 0,0 km/h (0 Bft)
30.10.2014 01:35 0,5 C 94 % 1023,6 hPa 0,0 l/m 0,0 km/h (0 Bft) SO 135 -0,4 C -0,4 C 0,0 km/h (0 Bft)
30.10.2014 01:40 0,5 C 94 % 1023,8 hPa 0,0 l/m 0,0 km/h (0 Bft) O-SO 112 -0,4 C -0,5 C 0,0 km/h (0 Bft)
30.10.2014 01:45 0,3 C 94 % 1023,8 hPa 0,0 l/m 0,0 km/h (0 Bft) SO 135 -0,5 C -0,5 C 0,0 km/h (0 Bft)
30.10.2014 01:50 0,4 C 94 % 1023,8 hPa 0,0 l/m 0,0 km/h (0 Bft) SO 135 -0,5 C -0,6 C 0,0 km/h (0 Bft)
30.10.2014 01:55 0,4 C 94 % 1023,8 hPa 0,0 l/m 0,0 km/h (0 Bft) S-SO 157 -0,5 C -0,6 C 0,0 km/h (0 Bft)
30.10.2014 02:00 0,9 C 95 % 1023,9 hPa 0,0 l/m 0,2 km/h (0 Bft) S-SO 157 0,2 C -0,6 C 0,0 km/h (0 Bft)
30.10.2014 02:05 0,6 C 94 % 1023,9 hPa 0,0 l/m 0,5 km/h (0 Bft) S-SO 157 -0,3 C -0,4 C 1,9 km/h (1 Bft)
30.10.2014 02:10 1,4 C 95 % 1023,9 hPa 0,0 l/m 0,6 km/h (0 Bft) S-SO 157 0,7 C -0,1 C 1,6 km/h (1 Bft)
30.10.2014 02:15 0,4 C 94 % 1023,9 hPa 0,0 l/m 0,5 km/h (0 Bft) S-SO 157 -0,5 C -0,3 C 1,6 km/h (1 Bft)
30.10.2014 02:20 0,4 C 94 % 1023,8 hPa 0,0 l/m 0,2 km/h (0 Bft) SO 135 -0,5 C -0,4 C 0,0 km/h (0 Bft)
30.10.2014 02:25 0,2 C 94 % 1023,8 hPa 0,0 l/m 0,2 km/h (0 Bft) S 180 -0,6 C -0,6 C 0,0 km/h (0 Bft)
30.10.2014 02:30 0,2 C 94 % 1023,8 hPa 0,0 l/m 0,0 km/h (0 Bft) O-SO 112 -0,6 C -0,7 C 0,0 km/h (0 Bft)
30.10.2014 02:35 0,0 C 94 % 1023,8 hPa 0,0 l/m 0,2 km/h (0 Bft) O 90 -0,8 C -0,7 C 0,0 km/h (0 Bft)
30.10.2014 02:40 -0,1 C 94 % 1023,7 hPa 0,0 l/m 0,2 km/h (0 Bft) O 90 -0,9 C -0,7 C 0,0 km/h (0 Bft)
30.10.2014 02:45 -0,1 C 94 % 1023,7 hPa 0,0 l/m 0,0 km/h (0 Bft) O 90 -0,9 C -0,9 C 0,0 km/h (0 Bft)
30.10.2014 02:50 0,0 C 94 % 1023,7 hPa 0,0 l/m 0,0 km/h (0 Bft) SO 135 -0,8 C -1,0 C 0,0 km/h (0 Bft)
30.10.2014 02:55 -0,3 C 94 % 1023,7 hPa 0,0 l/m 0,0 km/h (0 Bft) NO 45 -1,1 C -1,0 C 0,0 km/h (0 Bft)
30.10.2014 03:00 -0,1 C 94 % 1023,8 hPa 0,0 l/m 0,0 km/h (0 Bft) O-SO 112 -0,9 C -0,9 C 0,0 km/h (0 Bft)
30.10.2014 03:05 0,0 C 94 % 1023,8 hPa 0,0 l/m 0,2 km/h (0 Bft) SO 135 -0,8 C -0,8 C 0,0 km/h (0 Bft)
30.10.2014 03:10 0,1 C 94 % 1023,8 hPa 0,0 l/m 0,2 km/h (0 Bft) O-NO 67 -0,7 C -0,8 C 0,0 km/h (0 Bft)
30.10.2014 03:15 0,1 C 95 % 1023,8 hPa 0,0 l/m 0,2 km/h (0 Bft) SO 135 -0,6 C -1,0 C 0,0 km/h (0 Bft)
30.10.2014 03:20 0,0 C 94 % 1023,8 hPa 0,0 l/m 0,2 km/h (0 Bft) NO 45 -0,8 C -0,9 C 0,0 km/h (0 Bft)
30.10.2014 03:25 -0,1 C 94 % 1023,8 hPa 0,0 l/m 0,2 km/h (0 Bft) SO 135 -0,9 C -1,0 C 0,0 km/h (0 Bft)
30.10.2014 03:30 -0,2 C 94 % 1023,8 hPa 0,0 l/m 0,2 km/h (0 Bft) O-SO 112 -1,0 C -1,0 C 0,0 km/h (0 Bft)
30.10.2014 03:35 -0,3 C 94 % 1023,8 hPa 0,0 l/m 0,2 km/h (0 Bft) SO 135 -1,1 C -1,1 C 0,0 km/h (0 Bft)
30.10.2014 03:40 0,0 C 95 % 1023,9 hPa 0,0 l/m 0,3 km/h (0 Bft) O-NO 67 -0,7 C -1,1 C 0,0 km/h (0 Bft)
30.10.2014 03:45 -0,2 C 94 % 1023,9 hPa 0,0 l/m 0,2 km/h (0 Bft) O-NO 67 -1,0 C -1,1 C 0,0 km/h (0 Bft)
30.10.2014 03:50 -0,1 C 94 % 1023,9 hPa 0,0 l/m 0,0 km/h (0 Bft) SO 135 -0,9 C -1,1 C 0,0 km/h (0 Bft)
30.10.2014 03:55 -0,4 C 94 % 1023,9 hPa 0,0 l/m 0,0 km/h (0 Bft) NO 45 -1,2 C -1,2 C 0,0 km/h (0 Bft)
30.10.2014 04:00 -0,4 C 94 % 1023,8 hPa 0,0 l/m 0,0 km/h (0 Bft) SO 135 -1,2 C -1,2 C 0,0 km/h (0 Bft)
30.10.2014 04:05 -0,3 C 94 % 1023,8 hPa 0,0 l/m 0,0 km/h (0 Bft) O-SO 112 -1,1 C -1,3 C 0,0 km/h (0 Bft)
30.10.2014 04:10 -0,4 C 94 % 1023,8 hPa 0,0 l/m 0,0 km/h (0 Bft) O 90 -1,2 C -1,3 C 0,0 km/h (0 Bft)
30.10.2014 04:15 -0,5 C 94 % 1023,8 hPa 0,0 l/m 0,0 km/h (0 Bft) O-NO 67 -1,3 C -1,2 C 0,0 km/h (0 Bft)
30.10.2014 04:20 -0,6 C 94 % 1023,8 hPa 0,0 l/m 0,5 km/h (0 Bft) W-SW 247 -1,4 C -1,2 C 1,6 km/h (1 Bft)
30.10.2014 04:25 -0,6 C 94 % 1023,8 hPa 0,0 l/m 0,5 km/h (0 Bft) NW 315 -1,4 C -1,2 C 0,0 km/h (0 Bft)
30.10.2014 04:30 -0,4 C 94 % 1023,8 hPa 0,0 l/m 0,2 km/h (0 Bft) NW 315 -1,2 C -1,1 C 0,0 km/h (0 Bft)
30.10.2014 04:35 -0,1 C 95 % 1023,8 hPa 0,0 l/m 0,5 km/h (0 Bft) W-SW 247 -0,8 C -1,1 C 0,0 km/h (0 Bft)
30.10.2014 04:40 -0,3 C 95 % 1023,9 hPa 0,0 l/m 0,3 km/h (0 Bft) S-SO 157 -1,0 C -1,1 C 0,0 km/h (0 Bft)
30.10.2014 04:45 -0,1 C 95 % 1023,9 hPa 0,0 l/m 0,3 km/h (0 Bft) O 90 -0,8 C -1,0 C 1,8 km/h (1 Bft)
30.10.2014 04:50 -0,3 C 95 % 1023,9 hPa 0,0 l/m 0,5 km/h (0 Bft) SO 135 -1,0 C -1,0 C 1,6 km/h (1 Bft)
30.10.2014 04:55 -0,4 C 95 % 1023,9 hPa 0,0 l/m 1,0 km/h (0 Bft) W 270 -1,1 C -1,1 C 5,0 km/h (1 Bft)
30.10.2014 05:00 0,0 C 95 % 1024,0 hPa 0,0 l/m 1,0 km/h (0 Bft) N-NW 337 -0,7 C -0,9 C 0,0 km/h (0 Bft)
30.10.2014 05:05 -0,3 C 95 % 1024,0 hPa 0,0 l/m 0,6 km/h (0 Bft) S-SW 202 -1,0 C -0,9 C 1,8 km/h (1 Bft)
30.10.2014 05:10 -0,1 C 95 % 1024,0 hPa 0,0 l/m 0,2 km/h (0 Bft) SO 135 -0,8 C -1,0 C 0,0 km/h (0 Bft)
30.10.2014 05:15 -0,4 C 95 % 1024,0 hPa 0,0 l/m 0,2 km/h (0 Bft) W-SW 247 -1,1 C -1,0 C 0,0 km/h (0 Bft)
30.10.2014 05:20 -0,4 C 95 % 1024,1 hPa 0,0 l/m 0,0 km/h (0 Bft) S-SW 202 -1,1 C -1,1 C 0,0 km/h (0 Bft)
30.10.2014 05:25 -0,5 C 95 % 1024,1 hPa 0,0 l/m 0,2 km/h (0 Bft) S-SO 157 -1,2 C -1,2 C 0,0 km/h (0 Bft)
30.10.2014 05:30 -0,6 C 95 % 1024,1 hPa 0,0 l/m 0,2 km/h (0 Bft) SW 225 -1,3 C -1,2 C 0,0 km/h (0 Bft)
30.10.2014 05:35 -0,8 C 95 % 1024,1 hPa 0,0 l/m 0,0 km/h (0 Bft) SO 135 -1,5 C -1,3 C 0,0 km/h (0 Bft)
30.10.2014 05:40 -0,8 C 95 % 1024,2 hPa 0,0 l/m 0,0 km/h (0 Bft) SO 135 -1,5 C -1,3 C 0,0 km/h (0 Bft)
30.10.2014 05:45 -0,9 C 95 % 1024,2 hPa 0,0 l/m 0,0 km/h (0 Bft) SO 135 -1,6 C -1,5 C 0,0 km/h (0 Bft)
30.10.2014 05:50 -0,8 C 95 % 1024,2 hPa 0,0 l/m 0,0 km/h (0 Bft) SO 135 -1,5 C -1,6 C 0,0 km/h (0 Bft)
30.10.2014 05:55 -0,7 C 95 % 1024,2 hPa 0,0 l/m 0,2 km/h (0 Bft) O-SO 112 -1,4 C -1,5 C 0,0 km/h (0 Bft)
30.10.2014 06:00 -0,7 C 95 % 1024,4 hPa 0,0 l/m 0,2 km/h (0 Bft) O-SO 112 -1,4 C -1,4 C 0,0 km/h (0 Bft)
30.10.2014 06:05 -0,7 C 95 % 1024,4 hPa 0,0 l/m 0,0 km/h (0 Bft) O-SO 112 -1,4 C -1,3 C 0,0 km/h (0 Bft)
30.10.2014 06:10 -0,7 C 95 % 1024,4 hPa 0,0 l/m 0,0 km/h (0 Bft) O-NO 67 -1,4 C -1,3 C 0,0 km/h (0 Bft)
30.10.2014 06:15 -0,6 C 95 % 1024,4 hPa 0,0 l/m 0,0 km/h (0 Bft) SO 135 -1,3 C -1,1 C 0,0 km/h (0 Bft)
30.10.2014 06:20 -0,5 C 95 % 1024,3 hPa 0,0 l/m 0,3 km/h (0 Bft) O-NO 67 -1,2 C -0,9 C 0,0 km/h (0 Bft)
30.10.2014 06:25 -0,2 C 95 % 1024,3 hPa 0,0 l/m 0,2 km/h (0 Bft) S 180 -0,9 C -0,7 C 0,0 km/h (0 Bft)
30.10.2014 06:30 0,1 C 95 % 1024,3 hPa 0,0 l/m 0,2 km/h (0 Bft) W 270 -0,6 C -0,6 C 0,0 km/h (0 Bft)
30.10.2014 06:35 0,4 C 95 % 1024,3 hPa 0,0 l/m 0,2 km/h (0 Bft) W 270 -0,3 C -0,1 C 0,0 km/h (0 Bft)
30.10.2014 06:40 0,5 C 95 % 1024,6 hPa 0,0 l/m 0,2 km/h (0 Bft) NW 315 -0,2 C 0,1 C 2,7 km/h (1 Bft)
30.10.2014 06:45 0,7 C 96 % 1024,6 hPa 0,0 l/m 0,2 km/h (0 Bft) W 270 0,1 C 0,3 C 0,0 km/h (0 Bft)
30.10.2014 06:50 0,7 C 96 % 1024,6 hPa 0,0 l/m 0,3 km/h (0 Bft) NW 315 0,1 C 0,5 C 0,0 km/h (0 Bft)
30.10.2014 06:55 0,8 C 96 % 1024,6 hPa 0,0 l/m 0,2 km/h (0 Bft) NW 315 0,2 C 0,6 C 0,0 km/h (0 Bft)
30.10.2014 07:00 0,9 C 96 % 1024,7 hPa 0,0 l/m 0,0 km/h (0 Bft) W 270 0,3 C 0,6 C 0,0 km/h (0 Bft)
30.10.2014 07:05 1,0 C 96 % 1024,7 hPa 0,0 l/m 0,0 km/h (0 Bft) N-NW 337 0,4 C 0,8 C 0,0 km/h (0 Bft)
30.10.2014 07:10 1,2 C 96 % 1024,7 hPa 0,0 l/m 0,2 km/h (0 Bft) NW 315 0,6 C 1,0 C 1,6 km/h (1 Bft)
30.10.2014 07:15 1,4 C 96 % 1024,7 hPa 0,0 l/m 0,5 km/h (0 Bft) O-SO 112 0,8 C 1,2 C 1,8 km/h (1 Bft)
30.10.2014 07:18 1,5 C 96 % 1025,0 hPa 0,0 l/m 0,3 km/h (0 Bft) O-SO 112 0,9 C 1,3 C 0,0 km/h (0 Bft)
30.10.2014 07:20 1,5 C 96 % 1025,0 hPa 0,0 l/m 0,3 km/h (0 Bft) O-SO 112 0,9 C 1,3 C 0,0 km/h (0 Bft)
30.10.2014 07:25 1,6 C 96 % 1025,0 hPa 0,0 l/m 0,3 km/h (0 Bft) W-SW 247 1,0 C 1,6 C 2,3 km/h (1 Bft)
30.10.2014 07:30 1,8 C 96 % 1025,0 hPa 0,0 l/m 0,5 km/h (0 Bft) SW 225 1,2 C 1,7 C 0,0 km/h (0 Bft)
30.10.2014 07:35 2,0 C 96 % 1025,0 hPa 0,0 l/m 0,3 km/h (0 Bft) SW 225 1,4 C 1,9 C 0,0 km/h (0 Bft)
30.10.2014 07:40 2,1 C 96 % 1025,3 hPa 0,0 l/m 0,0 km/h (0 Bft) W-SW 247 1,5 C 2,0 C 0,0 km/h (0 Bft)
30.10.2014 07:45 2,1 C 96 % 1025,3 hPa 0,0 l/m 0,0 km/h (0 Bft) W-SW 247 1,5 C 2,1 C 0,0 km/h (0 Bft)
30.10.2014 07:50 2,2 C 96 % 1025,3 hPa 0,0 l/m 0,0 km/h (0 Bft) W-SW 247 1,6 C 2,1 C 0,0 km/h (0 Bft)
30.10.2014 07:55 2,5 C 96 % 1025,3 hPa 0,0 l/m 0,3 km/h (0 Bft) SO 135 1,9 C 2,2 C 0,0 km/h (0 Bft)
30.10.2014 08:00 3,0 C 95 % 1025,6 hPa 0,0 l/m 0,5 km/h (0 Bft) O-SO 112 2,3 C 2,4 C 0,0 km/h (0 Bft)
30.10.2014 08:05 2,8 C 96 % 1025,6 hPa 0,0 l/m 0,3 km/h (0 Bft) W 270 2,2 C 2,6 C 0,0 km/h (0 Bft)
30.10.2014 08:10 2,9 C 96 % 1025,6 hPa 0,0 l/m 0,3 km/h (0 Bft) S-SO 157 2,3 C 2,6 C 0,0 km/h (0 Bft)
30.10.2014 08:15 3,6 C 95 % 1025,6 hPa 0,0 l/m 0,8 km/h (0 Bft) S-SO 157 2,9 C 3,0 C 2,4 km/h (1 Bft)
30.10.2014 08:20 3,8 C 95 % 1025,5 hPa 0,0 l/m 1,3 km/h (1 Bft) O-SO 112 3,1 C 3,3 C 0,0 km/h (0 Bft)
30.10.2014 08:25 3,5 C 95 % 1025,5 hPa 0,0 l/m 1,6 km/h (1 Bft) SW 225 2,8 C 3,5 C 3,2 km/h (1 Bft)
30.10.2014 08:30 3,5 C 96 % 1025,5 hPa 0,0 l/m 1,0 km/h (0 Bft) S-SW 202 2,9 C 3,4 C 0,0 km/h (0 Bft)
30.10.2014 08:35 3,5 C 96 % 1025,5 hPa 0,0 l/m 0,5 km/h (0 Bft) SW 225 2,9 C 3,4 C 0,0 km/h (0 Bft)
30.10.2014 08:40 3,7 C 96 % 1025,9 hPa 0,0 l/m 0,8 km/h (0 Bft) NW 315 3,1 C 3,4 C 2,7 km/h (1 Bft)
30.10.2014 08:45 3,4 C 96 % 1025,9 hPa 0,0 l/m 1,0 km/h (0 Bft) N-NW 337 2,8 C 3,3 C 0,0 km/h (0 Bft)
30.10.2014 08:50 3,4 C 96 % 1025,9 hPa 0,0 l/m 0,5 km/h (0 Bft) NW 315 2,8 C 3,3 C 0,0 km/h (0 Bft)
30.10.2014 08:55 3,5 C 96 % 1025,9 hPa 0,0 l/m 0,0 km/h (0 Bft) S-SO 157 2,9 C 3,3 C 0,0 km/h (0 Bft)
30.10.2014 09:00 3,7 C 96 % 1025,9 hPa 0,0 l/m 0,0 km/h (0 Bft) W 270 3,1 C 3,3 C 0,0 km/h (0 Bft)
30.10.2014 09:05 3,8 C 96 % 1025,9 hPa 0,0 l/m 0,2 km/h (0 Bft) N-NO 22 3,2 C 3,5 C 0,0 km/h (0 Bft)
30.10.2014 09:10 4,0 C 96 % 1025,9 hPa 0,0 l/m 0,2 km/h (0 Bft) N-NO 22 3,4 C 3,7 C 0,0 km/h (0 Bft)
30.10.2014 09:15 4,2 C 96 % 1025,9 hPa 0,0 l/m 0,0 km/h (0 Bft) W-SW 247 3,6 C 4,1 C 0,0 km/h (0 Bft)
30.10.2014 09:20 4,3 C 96 % 1026,1 hPa 0,0 l/m 0,0 km/h (0 Bft) W-NW 292 3,7 C 4,2 C 0,0 km/h (0 Bft)
30.10.2014 09:25 4,5 C 96 % 1026,1 hPa 0,0 l/m 0,2 km/h (0 Bft) NO 45 3,9 C 4,4 C 0,0 km/h (0 Bft)
30.10.2014 09:30 4,6 C 96 % 1026,1 hPa 0,0 l/m 0,2 km/h (0 Bft) O-NO 67 4,0 C 4,5 C 0,0 km/h (0 Bft)
30.10.2014 09:35 4,8 C 96 % 1026,1 hPa 0,0 l/m 0,0 km/h (0 Bft) NO 45 4,2 C 4,9 C 0,0 km/h (0 Bft)
30.10.2014 09:40 5,0 C 96 % 1026,2 hPa 0,0 l/m 0,2 km/h (0 Bft) NW 315 4,4 C 5,1 C 1,6 km/h (1 Bft)
30.10.2014 09:45 4,9 C 96 % 1026,2 hPa 0,0 l/m 0,8 km/h (0 Bft) NW 315 4,3 C 5,1 C 0,0 km/h (0 Bft)
30.10.2014 09:50 5,0 C 96 % 1026,2 hPa 0,0 l/m 0,8 km/h (0 Bft) S-SO 157 4,4 C 5,1 C 0,0 km/h (0 Bft)
30.10.2014 09:55 5,4 C 96 % 1026,2 hPa 0,0 l/m 0,3 km/h (0 Bft) SW 225 4,8 C 5,3 C 0,0 km/h (0 Bft)
30.10.2014 10:00 5,7 C 96 % 1026,2 hPa 0,0 l/m 0,3 km/h (0 Bft) NW 315 5,1 C 5,6 C 2,4 km/h (1 Bft)
30.10.2014 10:05 5,7 C 96 % 1026,2 hPa 0,0 l/m 0,3 km/h (0 Bft) O-NO 67 5,1 C 5,8 C 0,0 km/h (0 Bft)
30.10.2014 10:10 5,8 C 96 % 1026,2 hPa 0,0 l/m 0,3 km/h (0 Bft) N-NO 22 5,2 C 6,0 C 0,0 km/h (0 Bft)
30.10.2014 10:15 5,6 C 96 % 1026,2 hPa 0,0 l/m 0,2 km/h (0 Bft) O-SO 112 5,0 C 6,0 C 1,6 km/h (1 Bft)
30.10.2014 10:18 5,7 C 96 % 1026,4 hPa 0,0 l/m 0,5 km/h (0 Bft) SO 135 5,1 C 6,0 C 0,0 km/h (0 Bft)
30.10.2014 10:20 5,7 C 96 % 1026,4 hPa 0,0 l/m 0,5 km/h (0 Bft) SO 135 5,1 C 6,0 C 0,0 km/h (0 Bft)
30.10.2014 10:25 6,3 C 95 % 1026,4 hPa 0,0 l/m 0,5 km/h (0 Bft) W-SW 247 5,6 C 6,3 C 0,0 km/h (0 Bft)
30.10.2014 10:30 6,4 C 95 % 1026,4 hPa 0,0 l/m 0,0 km/h (0 Bft) W 270 5,7 C 6,6 C 0,0 km/h (0 Bft)
30.10.2014 10:35 6,5 C 95 % 1026,4 hPa 0,0 l/m 0,0 km/h (0 Bft) O-SO 112 5,8 C 7,1 C 0,0 km/h (0 Bft)
30.10.2014 10:40 6,7 C 95 % 1026,2 hPa 0,0 l/m 0,0 km/h (0 Bft) SO 135 6,0 C 7,3 C 0,0 km/h (0 Bft)
30.10.2014 10:45 6,9 C 95 % 1026,2 hPa 0,0 l/m 0,0 km/h (0 Bft) SO 135 6,2 C 7,6 C 0,0 km/h (0 Bft)
30.10.2014 10:50 7,1 C 94 % 1026,2 hPa 0,0 l/m 0,0 km/h (0 Bft) O 90 6,2 C 7,8 C 0,0 km/h (0 Bft)
30.10.2014 10:55 7,5 C 94 % 1026,2 hPa 0,0 l/m 0,3 km/h (0 Bft) O-NO 67 6,6 C 7,9 C 2,1 km/h (1 Bft)
30.10.2014 11:00 7,4 C 94 % 1026,4 hPa 0,0 l/m 1,1 km/h (1 Bft) O-NO 67 6,5 C 8,0 C 2,7 km/h (1 Bft)
30.10.2014 11:05 7,5 C 94 % 1026,4 hPa 0,0 l/m 1,6 km/h (1 Bft) O-SO 112 6,6 C 7,9 C 1,6 km/h (1 Bft)
30.10.2014 11:10 7,5 C 94 % 1026,4 hPa 0,0 l/m 1,0 km/h (0 Bft) O-SO 112 6,6 C 7,9 C 0,0 km/h (0 Bft)
30.10.2014 11:15 7,5 C 94 % 1026,4 hPa 0,0 l/m 0,2 km/h (0 Bft) NO 45 6,6 C 8,1 C 0,0 km/h (0 Bft)
30.10.2014 11:20 7,5 C 94 % 1026,2 hPa 0,0 l/m 0,0 km/h (0 Bft) O-SO 112 6,6 C 8,1 C 0,0 km/h (0 Bft)
30.10.2014 11:25 7,8 C 94 % 1026,2 hPa 0,0 l/m 0,0 km/h (0 Bft) N-NW 337 6,9 C 8,2 C 0,0 km/h (0 Bft)
30.10.2014 11:30 7,8 C 94 % 1026,2 hPa 0,0 l/m 0,2 km/h (0 Bft) NO 45 6,9 C 8,2 C 0,0 km/h (0 Bft)
30.10.2014 11:35 7,9 C 94 % 1026,2 hPa 0,0 l/m 0,2 km/h (0 Bft) N-NW 337 7,0 C 8,4 C 0,0 km/h (0 Bft)
30.10.2014 11:40 8,0 C 93 % 1026,2 hPa 0,0 l/m 0,0 km/h (0 Bft) NO 45 6,9 C 8,7 C 0,0 km/h (0 Bft)
30.10.2014 11:45 8,4 C 93 % 1026,2 hPa 0,0 l/m 0,2 km/h (0 Bft) NW 315 7,3 C 8,8 C 0,0 km/h (0 Bft)
30.10.2014 11:50 8,2 C 93 % 1026,2 hPa 0,0 l/m 0,2 km/h (0 Bft) S-SO 157 7,1 C 8,8 C 0,0 km/h (0 Bft)
30.10.2014 11:55 8,3 C 93 % 1026,2 hPa 0,0 l/m 0,0 km/h (0 Bft) O-SO 112 7,2 C 9,0 C 0,0 km/h (0 Bft)
30.10.2014 12:00 8,4 C 93 % 1026,4 hPa 0,0 l/m 0,0 km/h (0 Bft) O-NO 67 7,3 C 9,1 C 0,0 km/h (0 Bft)
30.10.2014 12:05 8,6 C 93 % 1026,4 hPa 0,0 l/m 0,0 km/h (0 Bft) W 270 7,5 C 9,1 C 0,0 km/h (0 Bft)
30.10.2014 12:10 8,8 C 93 % 1026,4 hPa 0,0 l/m 0,2 km/h (0 Bft) W 270 7,7 C 9,2 C 1,6 km/h (1 Bft)
30.10.2014 12:15 8,9 C 93 % 1026,4 hPa 0,0 l/m 0,5 km/h (0 Bft) W-NW 292 7,8 C 9,3 C 1,8 km/h (1 Bft)
30.10.2014 12:20 8,8 C 92 % 1026,4 hPa 0,0 l/m 1,3 km/h (1 Bft) NW 315 7,6 C 9,3 C 2,9 km/h (1 Bft)
30.10.2014 12:25 8,9 C 92 % 1026,4 hPa 0,0 l/m 1,1 km/h (1 Bft) NW 315 7,7 C 9,4 C 1,6 km/h (1 Bft)
30.10.2014 12:30 8,9 C 91 % 1026,4 hPa 0,0 l/m 1,0 km/h (0 Bft) SO 135 7,5 C 9,6 C 3,5 km/h (1 Bft)
30.10.2014 12:35 9,4 C 91 % 1026,4 hPa 0,0 l/m 1,3 km/h (1 Bft) N-NW 337 8,0 C 9,9 C 1,9 km/h (1 Bft)
30.10.2014 12:40 9,3 C 90 % 1026,6 hPa 0,0 l/m 1,1 km/h (1 Bft) O-NO 67 7,7 C 10,1 C 0,0 km/h (0 Bft)
30.10.2014 12:45 9,8 C 90 % 1026,6 hPa 0,0 l/m 0,3 km/h (0 Bft) W-NW 292 8,2 C 10,6 C 1,9 km/h (1 Bft)
30.10.2014 12:50 9,9 C 90 % 1026,6 hPa 0,0 l/m 0,3 km/h (0 Bft) S-SO 157 8,3 C 11,0 C 0,0 km/h (0 Bft)
30.10.2014 12:55 9,6 C 89 % 1026,6 hPa 0,0 l/m 1,0 km/h (0 Bft) O-NO 67 7,9 C 11,1 C 0,0 km/h (0 Bft)
30.10.2014 13:00 9,8 C 89 % 1026,6 hPa 0,0 l/m 0,6 km/h (0 Bft) W-SW 247 8,1 C 11,3 C 0,0 km/h (0 Bft)
30.10.2014 13:05 9,3 C 88 % 1026,6 hPa 0,0 l/m 0,5 km/h (0 Bft) SO 135 7,4 C 11,4 C 1,9 km/h (1 Bft)
30.10.2014 13:10 9,3 C 88 % 1026,6 hPa 0,0 l/m 0,5 km/h (0 Bft) NO 45 7,4 C 11,3 C 1,6 km/h (1 Bft)
30.10.2014 13:15 9,6 C 89 % 1026,6 hPa 0,0 l/m 0,5 km/h (0 Bft) S-SO 157 7,9 C 11,3 C 0,0 km/h (0 Bft)
30.10.2014 13:18 9,9 C 89 % 1026,6 hPa 0,0 l/m 0,2 km/h (0 Bft) SW 225 8,2 C 11,4 C 0,0 km/h (0 Bft)
30.10.2014 13:20 9,9 C 89 % 1026,6 hPa 0,0 l/m 0,2 km/h (0 Bft) SW 225 8,2 C 11,4 C 0,0 km/h (0 Bft)
30.10.2014 13:25 9,7 C 89 % 1026,6 hPa 0,0 l/m 0,0 km/h (0 Bft) SW 225 8,0 C 11,7 C 0,0 km/h (0 Bft)
30.10.2014 13:30 9,8 C 90 % 1026,6 hPa 0,0 l/m 0,0 km/h (0 Bft) W-SW 247 8,2 C 11,8 C 0,0 km/h (0 Bft)
30.10.2014 13:35 10,1 C 90 % 1026,6 hPa 0,0 l/m 0,0 km/h (0 Bft) N-NO 22 8,5 C 11,9 C 0,0 km/h (0 Bft)
30.10.2014 13:40 10,0 C 89 % 1026,7 hPa 0,0 l/m 0,5 km/h (0 Bft) N-NO 22 8,3 C 11,7 C 0,0 km/h (0 Bft)
30.10.2014 13:45 10,1 C 88 % 1026,7 hPa 0,0 l/m 0,6 km/h (0 Bft) NO 45 8,2 C 11,8 C 0,0 km/h (0 Bft)
30.10.2014 13:50 10,1 C 88 % 1026,7 hPa 0,0 l/m 0,6 km/h (0 Bft) N-NO 22 8,2 C 11,8 C 4,3 km/h (1 Bft)
30.10.2014 13:55 10,1 C 87 % 1026,7 hPa 0,0 l/m 1,3 km/h (1 Bft) N-NO 22 8,0 C 11,7 C 0,0 km/h (0 Bft)
30.10.2014 14:00 10,1 C 87 % 1026,6 hPa 0,0 l/m 1,0 km/h (0 Bft) N-NO 22 8,0 C 11,7 C 0,0 km/h (0 Bft)
30.10.2014 14:05 10,0 C 87 % 1026,6 hPa 0,0 l/m 0,0 km/h (0 Bft) O-NO 67 7,9 C 11,7 C 0,0 km/h (0 Bft)
30.10.2014 14:10 10,1 C 88 % 1026,6 hPa 0,0 l/m 0,0 km/h (0 Bft) N-NO 22 8,2 C 11,7 C 0,0 km/h (0 Bft)
30.10.2014 14:15 10,0 C 88 % 1026,6 hPa 0,0 l/m 0,0 km/h (0 Bft) N-NO 22 8,1 C 11,7 C 0,0 km/h (0 Bft)
30.10.2014 14:20 10,2 C 88 % 1026,6 hPa 0,0 l/m 0,0 km/h (0 Bft) NO 45 8,3 C 11,7 C 0,0 km/h (0 Bft)
30.10.2014 14:25 10,5 C 88 % 1026,6 hPa 0,0 l/m 0,0 km/h (0 Bft) SO 135 8,6 C 11,7 C 0,0 km/h (0 Bft)
30.10.2014 14:30 10,6 C 88 % 1026,6 hPa 0,0 l/m 0,0 km/h (0 Bft) O-NO 67 8,7 C 11,7 C 0,0 km/h (0 Bft)
30.10.2014 14:35 10,7 C 89 % 1026,6 hPa 0,0 l/m 0,0 km/h (0 Bft) NO 45 9,0 C 11,8 C 0,0 km/h (0 Bft)
30.10.2014 14:40 10,6 C 88 % 1026,7 hPa 0,0 l/m 0,5 km/h (0 Bft) NO 45 8,7 C 11,8 C 2,3 km/h (1 Bft)
30.10.2014 14:45 10,5 C 87 % 1026,7 hPa 0,0 l/m 1,4 km/h (1 Bft) NO 45 8,4 C 11,7 C 2,1 km/h (1 Bft)
30.10.2014 14:50 10,5 C 86 % 1026,7 hPa 0,0 l/m 1,3 km/h (1 Bft) NO 45 8,3 C 11,7 C 0,0 km/h (0 Bft)
30.10.2014 14:55 10,6 C 87 % 1026,7 hPa 0,0 l/m 1,0 km/h (0 Bft) N-NO 22 8,5 C 11,7 C 2,1 km/h (1 Bft)
30.10.2014 15:00 10,6 C 87 % 1026,9 hPa 0,0 l/m 0,6 km/h (0 Bft) N-NO 22 8,5 C 11,7 C 0,0 km/h (0 Bft)
30.10.2014 15:05 10,8 C 88 % 1026,9 hPa 0,0 l/m 0,3 km/h (0 Bft) O 90 8,9 C 11,8 C 0,0 km/h (0 Bft)
30.10.2014 15:10 10,8 C 87 % 1026,9 hPa 0,0 l/m 0,6 km/h (0 Bft) O 90 8,7 C 11,9 C 3,1 km/h (1 Bft)
30.10.2014 15:15 10,7 C 87 % 1026,9 hPa 0,0 l/m 1,4 km/h (1 Bft) O 90 8,6 C 11,9 C 0,0 km/h (0 Bft)
30.10.2014 15:20 10,8 C 87 % 1026,8 hPa 0,0 l/m 1,1 km/h (1 Bft) O-NO 67 8,7 C 12,0 C 2,3 km/h (1 Bft)
30.10.2014 15:25 11,0 C 87 % 1026,8 hPa 0,0 l/m 0,2 km/h (0 Bft) N-NO 22 8,9 C 12,1 C 0,0 km/h (0 Bft)
30.10.2014 15:30 11,0 C 88 % 1026,8 hPa 0,0 l/m 0,2 km/h (0 Bft) O-SO 112 9,1 C 12,1 C 0,0 km/h (0 Bft)
30.10.2014 15:35 10,9 C 89 % 1026,8 hPa 0,0 l/m 0,0 km/h (0 Bft) O-SO 112 9,2 C 12,1 C 0,0 km/h (0 Bft)
30.10.2014 15:40 11,0 C 89 % 1026,9 hPa 0,0 l/m 0,3 km/h (0 Bft) N-NO 22 9,3 C 12,1 C 2,1 km/h (1 Bft)
30.10.2014 15:45 10,9 C 89 % 1026,9 hPa 0,0 l/m 0,3 km/h (0 Bft) N-NO 22 9,2 C 11,8 C 0,0 km/h (0 Bft)
30.10.2014 15:50 10,9 C 90 % 1026,9 hPa 0,0 l/m 0,3 km/h (0 Bft) O-SO 112 9,3 C 11,7 C 0,0 km/h (0 Bft)
30.10.2014 15:55 10,7 C 90 % 1026,9 hPa 0,0 l/m 0,0 km/h (0 Bft) O-SO 112 9,1 C 11,6 C 0,0 km/h (0 Bft)
30.10.2014 16:00 10,7 C 90 % 1026,8 hPa 0,0 l/m 0,0 km/h (0 Bft) O-SO 112 9,1 C 11,5 C 0,0 km/h (0 Bft)
30.10.2014 16:05 10,6 C 90 % 1026,8 hPa 0,0 l/m 0,0 km/h (0 Bft) O-SO 112 9,0 C 11,5 C 0,0 km/h (0 Bft)
30.10.2014 16:10 10,6 C 91 % 1026,8 hPa 0,0 l/m 0,2 km/h (0 Bft) N-NO 22 9,2 C 11,3 C 0,0 km/h (0 Bft)
30.10.2014 16:15 10,5 C 91 % 1026,8 hPa 0,0 l/m 0,2 km/h (0 Bft) O-SO 112 9,1 C 11,1 C 0,0 km/h (0 Bft)
30.10.2014 16:20 10,4 C 91 % 1026,8 hPa 0,0 l/m 0,0 km/h (0 Bft) O-SO 112 9,0 C 11,0 C 0,0 km/h (0 Bft)
30.10.2014 16:25 10,3 C 91 % 1026,8 hPa 0,0 l/m 0,0 km/h (0 Bft) O-SO 112 8,9 C 10,8 C 0,0 km/h (0 Bft)
30.10.2014 16:30 10,2 C 91 % 1026,8 hPa 0,0 l/m 0,0 km/h (0 Bft) O-SO 112 8,8 C 10,7 C 0,0 km/h (0 Bft)
30.10.2014 16:35 10,1 C 91 % 1026,8 hPa 0,0 l/m 0,0 km/h (0 Bft) O-SO 112 8,7 C 10,5 C 0,0 km/h (0 Bft)
30.10.2014 16:40 10,0 C 91 % 1026,9 hPa 0,0 l/m 0,0 km/h (0 Bft) S 180 8,6 C 10,4 C 0,0 km/h (0 Bft)
30.10.2014 16:45 9,9 C 91 % 1026,9 hPa 0,0 l/m 0,0 km/h (0 Bft) SW 225 8,5 C 10,1 C 0,0 km/h (0 Bft)
30.10.2014 16:50 9,8 C 91 % 1026,9 hPa 0,0 l/m 0,0 km/h (0 Bft) SW 225 8,4 C 10,1 C 0,0 km/h (0 Bft)
30.10.2014 16:55 9,6 C 91 % 1026,9 hPa 0,0 l/m 0,0 km/h (0 Bft) S 180 8,2 C 9,9 C 0,0 km/h (0 Bft)
30.10.2014 17:00 9,5 C 91 % 1026,9 hPa 0,0 l/m 0,0 km/h (0 Bft) SO 135 8,1 C 9,7 C 0,0 km/h (0 Bft)
30.10.2014 17:05 9,3 C 92 % 1026,9 hPa 0,0 l/m 0,0 km/h (0 Bft) S-SO 157 8,1 C 9,6 C 0,0 km/h (0 Bft)
30.10.2014 17:10 9,3 C 92 % 1026,9 hPa 0,0 l/m 0,0 km/h (0 Bft) S-SW 202 8,1 C 9,4 C 0,0 km/h (0 Bft)
30.10.2014 17:15 9,2 C 92 % 1026,9 hPa 0,0 l/m 0,0 km/h (0 Bft) S 180 8,0 C 9,3 C 0,0 km/h (0 Bft)
30.10.2014 17:20 9,1 C 92 % 1027,2 hPa 0,0 l/m 0,0 km/h (0 Bft) S-SO 157 7,9 C 9,1 C 0,0 km/h (0 Bft)
30.10.2014 17:25 9,0 C 92 % 1027,2 hPa 0,0 l/m 0,0 km/h (0 Bft) S-SO 157 7,8 C 9,0 C 0,0 km/h (0 Bft)
30.10.2014 17:30 9,1 C 92 % 1027,2 hPa 0,0 l/m 0,0 km/h (0 Bft) SO 135 7,9 C 8,9 C 0,0 km/h (0 Bft)
30.10.2014 17:35 8,9 C 92 % 1027,2 hPa 0,0 l/m 0,6 km/h (0 Bft) W-SW 247 7,7 C 8,9 C 0,0 km/h (0 Bft)
30.10.2014 17:40 8,8 C 92 % 1027,1 hPa 0,0 l/m 0,6 km/h (0 Bft) S-SO 157 7,6 C 8,8 C 0,0 km/h (0 Bft)
30.10.2014 17:45 8,6 C 92 % 1027,1 hPa 0,0 l/m 0,0 km/h (0 Bft) S-SO 157 7,4 C 8,7 C 0,0 km/h (0 Bft)
30.10.2014 17:50 8,5 C 92 % 1027,1 hPa 0,0 l/m 0,0 km/h (0 Bft) S-SO 157 7,3 C 8,6 C 0,0 km/h (0 Bft)
30.10.2014 17:55 8,4 C 92 % 1027,1 hPa 0,0 l/m 0,0 km/h (0 Bft) S-SO 157 7,2 C 8,5 C 0,0 km/h (0 Bft)
30.10.2014 18:00 8,4 C 92 % 1026,9 hPa 0,0 l/m 0,0 km/h (0 Bft) SW 225 7,2 C 8,5 C 0,0 km/h (0 Bft)
30.10.2014 18:05 8,4 C 92 % 1026,9 hPa 0,0 l/m 0,0 km/h (0 Bft) S-SO 157 7,2 C 8,4 C 0,0 km/h (0 Bft)
30.10.2014 18:10 8,4 C 92 % 1026,9 hPa 0,0 l/m 0,0 km/h (0 Bft) NW 315 7,2 C 8,4 C 0,0 km/h (0 Bft)
30.10.2014 18:15 8,4 C 93 % 1026,9 hPa 0,0 l/m 0,0 km/h (0 Bft) N 360 7,3 C 8,3 C 0,0 km/h (0 Bft)
30.10.2014 18:20 8,4 C 93 % 1027,2 hPa 0,0 l/m 0,0 km/h (0 Bft) S 180 7,3 C 8,3 C 0,0 km/h (0 Bft)
30.10.2014 18:25 8,5 C 93 % 1027,2 hPa 0,0 l/m 0,2 km/h (0 Bft) S 180 7,4 C 8,4 C 0,0 km/h (0 Bft)
30.10.2014 18:30 8,4 C 93 % 1027,2 hPa 0,0 l/m 0,5 km/h (0 Bft) O-SO 112 7,3 C 8,4 C 1,6 km/h (1 Bft)
30.10.2014 18:35 8,5 C 93 % 1027,2 hPa 0,0 l/m 0,8 km/h (0 Bft) S 180 7,4 C 8,4 C 0,0 km/h (0 Bft)
30.10.2014 18:40 8,5 C 93 % 1027,2 hPa 0,0 l/m 0,6 km/h (0 Bft) S-SO 157 7,4 C 8,4 C 0,0 km/h (0 Bft)
30.10.2014 18:45 8,2 C 93 % 1027,2 hPa 0,0 l/m 0,3 km/h (0 Bft) S 180 7,1 C 8,3 C 0,0 km/h (0 Bft)
30.10.2014 18:50 8,1 C 93 % 1027,2 hPa 0,0 l/m 0,5 km/h (0 Bft) SW 225 7,0 C 8,2 C 4,2 km/h (1 Bft)
30.10.2014 18:55 8,0 C 93 % 1027,2 hPa 0,0 l/m 0,8 km/h (0 Bft) SO 135 6,9 C 8,0 C 0,0 km/h (0 Bft)
30.10.2014 19:00 8,0 C 93 % 1027,3 hPa 0,0 l/m 0,8 km/h (0 Bft) S-SO 157 6,9 C 7,9 C 0,0 km/h (0 Bft)
30.10.2014 19:05 7,8 C 93 % 1027,3 hPa 0,0 l/m 0,0 km/h (0 Bft) SO 135 6,7 C 7,8 C 0,0 km/h (0 Bft)
30.10.2014 19:10 7,7 C 93 % 1027,3 hPa 0,0 l/m 0,0 km/h (0 Bft) SO 135 6,6 C 7,7 C 0,0 km/h (0 Bft)
30.10.2014 19:13 7,6 C 93 % 1027,3 hPa 0,0 l/m 0,0 km/h (0 Bft) S-SO 157 6,5 C 7,6 C 0,0 km/h (0 Bft)
30.10.2014 19:15 7,6 C 93 % 1027,3 hPa 0,0 l/m 0,0 km/h (0 Bft) S-SO 157 6,5 C 7,6 C 0,0 km/h (0 Bft)
30.10.2014 19:20 7,6 C 93 % 1027,1 hPa 0,0 l/m 0,5 km/h (0 Bft) SO 135 6,5 C 7,5 C 0,0 km/h (0 Bft)
30.10.2014 19:25 7,4 C 93 % 1027,1 hPa 0,0 l/m 0,5 km/h (0 Bft) NO 45 6,3 C 7,4 C 0,0 km/h (0 Bft)
30.10.2014 19:30 7,2 C 93 % 1027,1 hPa 0,0 l/m 0,2 km/h (0 Bft) NO 45 6,1 C 7,3 C 0,0 km/h (0 Bft)
30.10.2014 19:35 7,4 C 93 % 1027,1 hPa 0,0 l/m 0,0 km/h (0 Bft) S 180 6,3 C 7,2 C 0,0 km/h (0 Bft)
30.10.2014 19:40 7,4 C 93 % 1027,2 hPa 0,0 l/m 0,0 km/h (0 Bft) S 180 6,3 C 7,2 C 0,0 km/h (0 Bft)
30.10.2014 19:45 7,4 C 93 % 1027,2 hPa 0,0 l/m 0,0 km/h (0 Bft) S-SO 157 6,3 C 7,2 C 0,0 km/h (0 Bft)
30.10.2014 19:50 7,3 C 93 % 1027,2 hPa 0,0 l/m 0,0 km/h (0 Bft) S-SO 157 6,2 C 7,2 C 0,0 km/h (0 Bft)
30.10.2014 19:55 7,3 C 93 % 1027,2 hPa 0,0 l/m 0,0 km/h (0 Bft) S 180 6,2 C 7,2 C 0,0 km/h (0 Bft)
30.10.2014 20:00 7,4 C 93 % 1027,3 hPa 0,0 l/m 0,0 km/h (0 Bft) S-SO 157 6,3 C 7,2 C 0,0 km/h (0 Bft)
30.10.2014 20:05 7,5 C 93 % 1027,3 hPa 0,0 l/m 0,0 km/h (0 Bft) S 180 6,4 C 7,2 C 0,0 km/h (0 Bft)
30.10.2014 20:10 7,4 C 93 % 1027,3 hPa 0,0 l/m 0,0 km/h (0 Bft) S 180 6,3 C 7,2 C 0,0 km/h (0 Bft)
30.10.2014 20:15 7,2 C 93 % 1027,3 hPa 0,0 l/m 0,0 km/h (0 Bft) W-NW 292 6,1 C 7,1 C 0,0 km/h (0 Bft)
30.10.2014 20:20 7,1 C 93 % 1027,4 hPa 0,0 l/m 0,2 km/h (0 Bft) NW 315 6,0 C 7,1 C 0,0 km/h (0 Bft)
30.10.2014 20:25 7,0 C 93 % 1027,4 hPa 0,0 l/m 0,2 km/h (0 Bft) NW 315 5,9 C 7,0 C 0,0 km/h (0 Bft)
30.10.2014 20:30 6,9 C 94 % 1027,4 hPa 0,0 l/m 0,0 km/h (0 Bft) NW 315 6,0 C 6,8 C 0,0 km/h (0 Bft)
30.10.2014 20:35 6,8 C 94 % 1027,4 hPa 0,0 l/m 0,0 km/h (0 Bft) S 180 5,9 C 6,6 C 0,0 km/h (0 Bft)
30.10.2014 20:40 6,6 C 94 % 1027,5 hPa 0,0 l/m 0,0 km/h (0 Bft) S-SO 157 5,7 C 6,5 C 0,0 km/h (0 Bft)
30.10.2014 20:45 6,2 C 94 % 1027,5 hPa 0,0 l/m 0,0 km/h (0 Bft) S 180 5,3 C 6,2 C 0,0 km/h (0 Bft)
30.10.2014 20:50 6,1 C 93 % 1027,5 hPa 0,0 l/m 0,0 km/h (0 Bft) S 180 5,1 C 5,9 C 0,0 km/h (0 Bft)
30.10.2014 20:55 6,2 C 94 % 1027,5 hPa 0,0 l/m 0,2 km/h (0 Bft) S 180 5,3 C 5,8 C 0,0 km/h (0 Bft)
30.10.2014 21:00 5,9 C 95 % 1027,4 hPa 0,0 l/m 0,2 km/h (0 Bft) S 180 5,2 C 5,6 C 0,0 km/h (0 Bft)
30.10.2014 21:05 5,6 C 95 % 1027,4 hPa 0,0 l/m 0,0 km/h (0 Bft) SO 135 4,9 C 5,5 C 0,0 km/h (0 Bft)
30.10.2014 21:10 5,4 C 94 % 1027,4 hPa 0,0 l/m 0,0 km/h (0 Bft) SO 135 4,5 C 5,3 C 0,0 km/h (0 Bft)
30.10.2014 21:15 5,2 C 94 % 1027,4 hPa 0,0 l/m 0,0 km/h (0 Bft) SO 135 4,3 C 5,1 C 0,0 km/h (0 Bft)
30.10.2014 21:20 5,2 C 94 % 1027,6 hPa 0,0 l/m 0,0 km/h (0 Bft) S 180 4,3 C 4,9 C 0,0 km/h (0 Bft)
30.10.2014 21:25 5,2 C 94 % 1027,6 hPa 0,0 l/m 0,6 km/h (0 Bft) W-SW 247 4,3 C 5,0 C 2,7 km/h (1 Bft)
30.10.2014 21:30 5,2 C 94 % 1027,6 hPa 0,0 l/m 1,3 km/h (1 Bft) N-NO 22 4,3 C 5,0 C 3,5 km/h (1 Bft)
30.10.2014 21:35 5,2 C 94 % 1027,6 hPa 0,0 l/m 1,4 km/h (1 Bft) O-SO 112 4,3 C 4,9 C 0,0 km/h (0 Bft)
30.10.2014 21:40 5,2 C 95 % 1027,6 hPa 0,0 l/m 1,0 km/h (0 Bft) S 180 4,5 C 4,8 C 0,0 km/h (0 Bft)
30.10.2014 21:45 4,8 C 95 % 1027,6 hPa 0,0 l/m 0,3 km/h (0 Bft) S 180 4,1 C 4,6 C 0,0 km/h (0 Bft)
30.10.2014 21:50 4,6 C 95 % 1027,6 hPa 0,0 l/m 0,0 km/h (0 Bft) S 180 3,9 C 4,4 C 0,0 km/h (0 Bft)
30.10.2014 21:55 4,5 C 95 % 1027,6 hPa 0,0 l/m 0,2 km/h (0 Bft) NW 315 3,8 C 4,3 C 0,0 km/h (0 Bft)
30.10.2014 22:00 4,7 C 95 % 1027,8 hPa 0,0 l/m 1,0 km/h (0 Bft) SO 135 4,0 C 4,2 C 1,9 km/h (1 Bft)
30.10.2014 22:05 4,3 C 95 % 1027,8 hPa 0,0 l/m 0,6 km/h (0 Bft) O-NO 67 3,6 C 4,2 C 0,0 km/h (0 Bft)
30.10.2014 22:10 4,9 C 95 % 1027,8 hPa 0,0 l/m 0,3 km/h (0 Bft) S-SO 157 4,2 C 4,1 C 0,0 km/h (0 Bft)
30.10.2014 22:13 4,7 C 95 % 1027,8 hPa 0,0 l/m 0,2 km/h (0 Bft) SO 135 4,0 C 4,1 C 0,0 km/h (0 Bft)
30.10.2014 22:15 4,7 C 95 % 1027,8 hPa 0,0 l/m 0,2 km/h (0 Bft) SO 135 4,0 C 4,1 C 0,0 km/h (0 Bft)
30.10.2014 22:20 4,3 C 95 % 1027,7 hPa 0,0 l/m 0,0 km/h (0 Bft) S-SO 157 3,6 C 4,0 C 0,0 km/h (0 Bft)
30.10.2014 22:25 4,5 C 95 % 1027,7 hPa 0,0 l/m 0,0 km/h (0 Bft) SO 135 3,8 C 3,8 C 0,0 km/h (0 Bft)
30.10.2014 22:30 4,2 C 95 % 1027,7 hPa 0,0 l/m 0,0 km/h (0 Bft) SO 135 3,5 C 3,8 C 0,0 km/h (0 Bft)
30.10.2014 22:35 3,6 C 95 % 1027,7 hPa 0,0 l/m 0,0 km/h (0 Bft) SO 135 2,9 C 3,5 C 0,0 km/h (0 Bft)
30.10.2014 22:40 3,4 C 95 % 1027,7 hPa 0,0 l/m 0,0 km/h (0 Bft) W-SW 247 2,7 C 3,3 C 0,0 km/h (0 Bft)
30.10.2014 22:45 3,4 C 95 % 1027,7 hPa 0,0 l/m 0,0 km/h (0 Bft) W-SW 247 2,7 C 3,2 C 0,0 km/h (0 Bft)
30.10.2014 22:50 3,7 C 95 % 1027,7 hPa 0,0 l/m 0,3 km/h (0 Bft) S-SO 157 3,0 C 3,1 C 0,0 km/h (0 Bft)
30.10.2014 22:55 3,4 C 95 % 1027,7 hPa 0,0 l/m 0,3 km/h (0 Bft) S-SO 157 2,7 C 3,1 C 0,0 km/h (0 Bft)
30.10.2014 23:00 3,3 C 95 % 1027,7 hPa 0,0 l/m 0,0 km/h (0 Bft) S-SO 157 2,6 C 3,1 C 0,0 km/h (0 Bft)
30.10.2014 23:05 3,2 C 95 % 1027,7 hPa 0,0 l/m 0,0 km/h (0 Bft) W-SW 247 2,5 C 3,0 C 0,0 km/h (0 Bft)
30.10.2014 23:10 3,0 C 95 % 1027,7 hPa 0,0 l/m 0,0 km/h (0 Bft) W-SW 247 2,3 C 2,8 C 0,0 km/h (0 Bft)
30.10.2014 23:15 2,9 C 96 % 1027,7 hPa 0,0 l/m 0,0 km/h (0 Bft) SW 225 2,3 C 2,6 C 0,0 km/h (0 Bft)
30.10.2014 23:20 2,9 C 96 % 1027,6 hPa 0,0 l/m 0,0 km/h (0 Bft) SW 225 2,3 C 2,6 C 0,0 km/h (0 Bft)
30.10.2014 23:25 2,8 C 96 % 1027,6 hPa 0,0 l/m 0,0 km/h (0 Bft) SW 225 2,2 C 2,6 C 0,0 km/h (0 Bft)
30.10.2014 23:30 2,7 C 96 % 1027,6 hPa 0,0 l/m 0,0 km/h (0 Bft) W-SW 247 2,1 C 2,6 C 0,0 km/h (0 Bft)
30.10.2014 23:35 2,6 C 96 % 1027,6 hPa 0,0 l/m 0,0 km/h (0 Bft) W-SW 247 2,0 C 2,3 C 0,0 km/h (0 Bft)
30.10.2014 23:40 2,5 C 96 % 1027,5 hPa 0,0 l/m 0,0 km/h (0 Bft) W-SW 247 1,9 C 2,1 C 0,0 km/h (0 Bft)
30.10.2014 23:45 2,7 C 96 % 1027,5 hPa 0,0 l/m 0,0 km/h (0 Bft) SO 135 2,1 C 2,1 C 0,0 km/h (0 Bft)
30.10.2014 23:50 2,9 C 96 % 1027,5 hPa 0,0 l/m 0,2 km/h (0 Bft) SO 135 2,3 C 2,2 C 1,8 km/h (1 Bft)
30.10.2014 23:55 3,0 C 95 % 1027,5 hPa 0,0 l/m 0,2 km/h (0 Bft) O-NO 67 2,3 C 2,3 C 0,0 km/h (0 Bft)
_ Min-Zeit 05:45 14:50 00:15 - 23:45 - - 05:45 05:50 23:55
Minimum _ -0,9 C 86 % 1023,1 hPa - 0,0 km/h (0 Bft) - - -1,6 C -1,6 C 0,0 km/h (0 Bft)
_ Max-Zeit 15:40 23:50 22:15 23:55 11:05 - - 15:50 15:40 00:35
Maximum _ 11,0 C 96 % 1027,8 hPa 0,0 l/m 1,6 km/h
O-SO (1 Bft)
- - 9,3 C 12,1 C 6,1 km/h
O-SO (2 Bft)
Durchschnitt _ 4,9 C 93 % 1025,9 hPa #0,0 l/m 0,3 km/h (0 Bft) O-SO - 4,0 C 4,9 C 0,4 km/h (0 Bft)